sensor_id;sensor_type;location;lat;lon;timestamp;pressure;altitude;pressure_sealevel;temperature;humidity
74893;BME280;63446;56.272;43.922;2023-09-08T00:02:25;100454.59;;;12.32;66.49
74893;BME280;63446;56.272;43.922;2023-09-08T00:04:51;100451.41;;;12.30;66.67
74893;BME280;63446;56.272;43.922;2023-09-08T00:07:17;100455.13;;;12.29;66.72
74893;BME280;63446;56.272;43.922;2023-09-08T00:09:43;100446.69;;;12.27;67.19
74893;BME280;63446;56.272;43.922;2023-09-08T00:12:08;100448.25;;;12.28;67.09
74893;BME280;63446;56.272;43.922;2023-09-08T00:14:35;100452.00;;;12.27;67.38
74893;BME280;63446;56.272;43.922;2023-09-08T00:17:01;100447.47;;;12.27;67.61
74893;BME280;63446;56.272;43.922;2023-09-08T00:19:27;100448.56;;;12.26;67.61
74893;BME280;63446;56.272;43.922;2023-09-08T00:21:52;100450.97;;;12.23;67.76
74893;BME280;63446;56.272;43.922;2023-09-08T00:24:19;100451.47;;;12.25;68.00
74893;BME280;63446;56.272;43.922;2023-09-08T00:26:45;100457.84;;;12.24;68.12
74893;BME280;63446;56.272;43.922;2023-09-08T00:29:11;100447.22;;;12.24;68.28
74893;BME280;63446;56.272;43.922;2023-09-08T00:31:37;100453.59;;;12.23;68.38
74893;BME280;63446;56.272;43.922;2023-09-08T00:34:03;100445.66;;;12.23;68.54
74893;BME280;63446;56.272;43.922;2023-09-08T00:36:28;100448.31;;;12.23;68.65
74893;BME280;63446;56.272;43.922;2023-09-08T00:38:55;100453.09;;;12.20;68.74
74893;BME280;63446;56.272;43.922;2023-09-08T00:41:22;100445.41;;;12.19;68.89
74893;BME280;63446;56.272;43.922;2023-09-08T00:43:50;100449.13;;;12.18;69.15
74893;BME280;63446;56.272;43.922;2023-09-08T00:46:16;100448.63;;;12.16;69.01
74893;BME280;63446;56.272;43.922;2023-09-08T00:48:43;100448.63;;;12.16;69.10
74893;BME280;63446;56.272;43.922;2023-09-08T00:51:08;100455.00;;;12.15;69.47
74893;BME280;63446;56.272;43.922;2023-09-08T00:53:36;100445.44;;;12.14;69.46
74893;BME280;63446;56.272;43.922;2023-09-08T00:56:03;100453.91;;;12.16;69.70
74893;BME280;63446;56.272;43.922;2023-09-08T00:58:29;100455.00;;;12.15;69.61
74893;BME280;63446;56.272;43.922;2023-09-08T01:00:55;100451.03;;;12.12;69.69
74893;BME280;63446;56.272;43.922;2023-09-08T01:03:24;100449.72;;;12.10;69.87
74893;BME280;63446;56.272;43.922;2023-09-08T01:05:50;100448.44;;;12.07;69.98
74893;BME280;63446;56.272;43.922;2023-09-08T01:08:16;100448.97;;;12.04;69.95
74893;BME280;63446;56.272;43.922;2023-09-08T01:10:43;100449.50;;;12.01;69.97
74893;BME280;63446;56.272;43.922;2023-09-08T01:13:09;100440.00;;;12.00;70.10
74893;BME280;63446;56.272;43.922;2023-09-08T01:15:35;100438.19;;;11.95;70.28
74893;BME280;63446;56.272;43.922;2023-09-08T01:18:00;100436.56;;;11.94;70.37
74893;BME280;63446;56.272;43.922;2023-09-08T01:20:50;100431.81;;;11.91;70.30
74893;BME280;63446;56.272;43.922;2023-09-08T01:26:10;100432.66;;;11.87;70.45
74893;BME280;63446;56.272;43.922;2023-09-08T01:28:37;100428.72;;;11.84;70.32
74893;BME280;63446;56.272;43.922;2023-09-08T01:31:05;100427.38;;;11.82;70.39
74893;BME280;63446;56.272;43.922;2023-09-08T01:33:31;100430.81;;;11.82;70.50
74893;BME280;63446;56.272;43.922;2023-09-08T01:35:57;100423.66;;;11.83;70.54
74893;BME280;63446;56.272;43.922;2023-09-08T01:38:25;100414.91;;;11.82;70.63
74893;BME280;63446;56.272;43.922;2023-09-08T01:40:52;100421.81;;;11.83;70.75
74893;BME280;63446;56.272;43.922;2023-09-08T01:43:18;100418.91;;;11.85;70.81
74893;BME280;63446;56.272;43.922;2023-09-08T01:45:45;100418.91;;;11.85;70.62
74893;BME280;63446;56.272;43.922;2023-09-08T01:48:10;100411.47;;;11.82;70.67
74893;BME280;63446;56.272;43.922;2023-09-08T01:50:36;100413.88;;;11.83;70.94
74893;BME280;63446;56.272;43.922;2023-09-08T01:53:02;100421.00;;;11.83;70.73
74893;BME280;63446;56.272;43.922;2023-09-08T01:55:28;100422.06;;;11.82;70.84
74893;BME280;63446;56.272;43.922;2023-09-08T01:57:56;100415.19;;;11.81;70.67
74893;BME280;63446;56.272;43.922;2023-09-08T02:00:22;100414.97;;;11.77;70.57
74893;BME280;63446;56.272;43.922;2023-09-08T02:02:48;100413.66;;;11.74;70.72
74893;BME280;63446;56.272;43.922;2023-09-08T02:05:14;100408.09;;;11.71;70.63
74893;BME280;63446;56.272;43.922;2023-09-08T02:07:41;100413.16;;;11.67;70.53
74893;BME280;63446;56.272;43.922;2023-09-08T02:10:07;100404.97;;;11.64;70.59
74893;BME280;63446;56.272;43.922;2023-09-08T02:12:33;100408.44;;;11.59;70.49
74893;BME280;63446;56.272;43.922;2023-09-08T02:15:01;100413.00;;;11.54;70.36
74893;BME280;63446;56.272;43.922;2023-09-08T02:17:30;100410.63;;;11.47;70.36
74893;BME280;63446;56.272;43.922;2023-09-08T02:19:56;100400.88;;;11.42;70.21
74893;BME280;63446;56.272;43.922;2023-09-08T02:22:22;100401.69;;;11.38;70.39
74893;BME280;63446;56.272;43.922;2023-09-08T02:24:48;100396.16;;;11.34;70.49
74893;BME280;63446;56.272;43.922;2023-09-08T02:27:14;100392.97;;;11.32;70.66
74893;BME280;63446;56.272;43.922;2023-09-08T02:29:40;100399.34;;;11.31;70.66
74893;BME280;63446;56.272;43.922;2023-09-08T02:32:05;100388.75;;;11.31;70.45
74893;BME280;63446;56.272;43.922;2023-09-08T02:34:34;100390.31;;;11.32;70.52
74893;BME280;63446;56.272;43.922;2023-09-08T02:37:03;100393.22;;;11.36;70.50
74893;BME280;63446;56.272;43.922;2023-09-08T02:39:29;100391.63;;;11.40;70.57
74893;BME280;63446;56.272;43.922;2023-09-08T02:41:54;100395.03;;;11.45;70.57
74893;BME280;63446;56.272;43.922;2023-09-08T02:44:20;100387.31;;;11.49;70.37
74893;BME280;63446;56.272;43.922;2023-09-08T02:46:51;100385.94;;;11.57;70.15
74893;BME280;63446;56.272;43.922;2023-09-08T02:49:17;100392.53;;;11.64;70.02
74893;BME280;63446;56.272;43.922;2023-09-08T02:51:43;100387.16;;;11.74;69.89
74893;BME280;63446;56.272;43.922;2023-09-08T02:54:10;100380.25;;;11.84;69.62
74893;BME280;63446;56.272;43.922;2023-09-08T02:56:36;100386.25;;;11.94;69.37
74893;BME280;63446;56.272;43.922;2023-09-08T02:59:02;100384.63;;;12.04;69.02
74893;BME280;63446;56.272;43.922;2023-09-08T03:01:29;100385.03;;;12.16;68.63
74893;BME280;63446;56.272;43.922;2023-09-08T03:03:55;100382.31;;;12.26;68.41
74893;BME280;63446;56.272;43.922;2023-09-08T03:06:21;100376.91;;;12.36;68.08
74893;BME280;63446;56.272;43.922;2023-09-08T03:08:48;100372.28;;;12.47;67.87
74893;BME280;63446;56.272;43.922;2023-09-08T03:11:14;100380.38;;;12.61;67.50
74893;BME280;63446;56.272;43.922;2023-09-08T03:13:40;100372.81;;;12.73;67.40
74893;BME280;63446;56.272;43.922;2023-09-08T03:16:07;100372.41;;;12.85;67.25
74893;BME280;63446;56.272;43.922;2023-09-08T03:18:34;100374.22;;;12.89;66.76
74893;BME280;63446;56.272;43.922;2023-09-08T03:21:03;100379.69;;;12.98;66.60
74893;BME280;63446;56.272;43.922;2023-09-08T03:23:39;100385.22;;;13.02;66.27
74893;BME280;63446;56.272;43.922;2023-09-08T03:26:06;100378.03;;;13.02;66.08
74893;BME280;63446;56.272;43.922;2023-09-08T03:28:33;100380.97;;;13.01;66.23
74893;BME280;63446;56.272;43.922;2023-09-08T03:31:02;100370.66;;;12.99;66.20
74893;BME280;63446;56.272;43.922;2023-09-08T03:33:31;100373.09;;;12.95;65.99
74893;BME280;63446;56.272;43.922;2023-09-08T03:35:58;100379.75;;;12.93;66.08
74893;BME280;63446;56.272;43.922;2023-09-08T03:38:23;100376.88;;;12.89;66.03
74893;BME280;63446;56.272;43.922;2023-09-08T03:40:50;100367.69;;;12.82;65.84
74893;BME280;63446;56.272;43.922;2023-09-08T03:43:17;100369.25;;;12.83;66.20
74893;BME280;63446;56.272;43.922;2023-09-08T03:45:43;100361.66;;;12.76;66.20
74893;BME280;63446;56.272;43.922;2023-09-08T03:48:09;100363.94;;;12.83;66.28
74893;BME280;63446;56.272;43.922;2023-09-08T03:50:36;100368.13;;;12.89;66.21
74893;BME280;63446;56.272;43.922;2023-09-08T03:53:02;100366.50;;;12.93;65.99
74893;BME280;63446;56.272;43.922;2023-09-08T03:55:30;100366.63;;;13.02;65.69
74893;BME280;63446;56.272;43.922;2023-09-08T03:57:58;100355.97;;;13.07;65.54
74893;BME280;63446;56.272;43.922;2023-09-08T04:00:24;100357.47;;;13.13;65.56
74893;BME280;63446;56.272;43.922;2023-09-08T04:02:51;100361.06;;;13.22;65.46
74893;BME280;63446;56.272;43.922;2023-09-08T04:05:17;100356.97;;;13.35;65.27
74893;BME280;63446;56.272;43.922;2023-09-08T04:07:44;100355.75;;;13.46;64.96
74893;BME280;63446;56.272;43.922;2023-09-08T04:10:10;100353.72;;;13.57;64.64
74893;BME280;63446;56.272;43.922;2023-09-08T04:12:36;100353.88;;;13.65;64.34
74893;BME280;63446;56.272;43.922;2023-09-08T04:15:02;100358.59;;;13.68;64.13
74893;BME280;63446;56.272;43.922;2023-09-08T04:17:30;100360.19;;;13.70;64.07
74893;BME280;63446;56.272;43.922;2023-09-08T04:19:56;100361.53;;;13.67;63.83
74893;BME280;63446;56.272;43.922;2023-09-08T04:22:22;100354.44;;;13.62;63.98
74893;BME280;63446;56.272;43.922;2023-09-08T04:24:48;100356.09;;;13.58;63.96
74893;BME280;63446;56.272;43.922;2023-09-08T04:27:13;100353.53;;;13.53;64.05
74893;BME280;63446;56.272;43.922;2023-09-08T04:29:39;100355.34;;;13.53;64.33
74893;BME280;63446;56.272;43.922;2023-09-08T04:32:05;100351.44;;;13.50;64.28
74893;BME280;63446;56.272;43.922;2023-09-08T04:34:39;100354.34;;;13.49;64.24
74893;BME280;63446;56.272;43.922;2023-09-08T04:37:06;100349.88;;;13.49;63.94
74893;BME280;63446;56.272;43.922;2023-09-08T04:39:32;100351.91;;;13.52;64.32
74893;BME280;63446;56.272;43.922;2023-09-08T04:41:58;100350.00;;;13.58;63.97
74893;BME280;63446;56.272;43.922;2023-09-08T04:44:24;100347.56;;;13.61;63.69
74893;BME280;63446;56.272;43.922;2023-09-08T04:46:52;100351.78;;;13.62;63.86
74893;BME280;63446;56.272;43.922;2023-09-08T04:49:18;100348.13;;;13.58;63.76
74893;BME280;63446;56.272;43.922;2023-09-08T04:51:45;100342.03;;;13.58;63.78
74893;BME280;63446;56.272;43.922;2023-09-08T04:54:11;100348.34;;;13.62;63.79
74893;BME280;63446;56.272;43.922;2023-09-08T04:56:38;100343.03;;;13.62;63.56
74893;BME280;63446;56.272;43.922;2023-09-08T04:59:04;100335.84;;;13.62;63.49
74893;BME280;63446;56.272;43.922;2023-09-08T05:01:30;100334.75;;;13.63;63.56
74893;BME280;63446;56.272;43.922;2023-09-08T05:03:59;100335.75;;;13.67;63.53
74893;BME280;63446;56.272;43.922;2023-09-08T05:06:26;100331.22;;;13.68;63.43
74893;BME280;63446;56.272;43.922;2023-09-08T05:08:52;100329.66;;;13.67;63.67
74893;BME280;63446;56.272;43.922;2023-09-08T05:11:18;100329.41;;;13.68;63.89
74893;BME280;63446;56.272;43.922;2023-09-08T05:13:48;100325.66;;;13.70;63.79
74893;BME280;63446;56.272;43.922;2023-09-08T05:16:14;100326.94;;;13.72;63.89
74893;BME280;63446;56.272;43.922;2023-09-08T05:18:48;100325.78;;;13.78;63.86
74893;BME280;63446;56.272;43.922;2023-09-08T05:21:15;100325.41;;;13.85;63.79
74893;BME280;63446;56.272;43.922;2023-09-08T05:23:40;100321.50;;;13.96;63.72
74893;BME280;63446;56.272;43.922;2023-09-08T05:26:07;100326.34;;;14.22;63.36
74893;BME280;63446;56.272;43.922;2023-09-08T05:28:33;100317.84;;;14.52;62.92
74893;BME280;63446;56.272;43.922;2023-09-08T05:30:59;100319.91;;;14.83;62.33
74893;BME280;63446;56.272;43.922;2023-09-08T05:33:26;100318.97;;;15.15;61.92
74893;BME280;63446;56.272;43.922;2023-09-08T05:35:52;100322.38;;;15.66;61.09
74893;BME280;63446;56.272;43.922;2023-09-08T05:38:17;100322.31;;;16.50;59.57
74893;BME280;63446;56.272;43.922;2023-09-08T05:40:43;100316.66;;;17.09;58.24
74893;BME280;63446;56.272;43.922;2023-09-08T05:43:09;100316.81;;;17.47;56.87
74893;BME280;63446;56.272;43.922;2023-09-08T05:45:35;100312.75;;;17.76;55.77
74893;BME280;63446;56.272;43.922;2023-09-08T05:48:02;100310.50;;;17.95;55.18
74893;BME280;63446;56.272;43.922;2023-09-08T05:50:28;100309.50;;;18.09;54.59
74893;BME280;63446;56.272;43.922;2023-09-08T05:52:54;100311.69;;;18.15;54.23
74893;BME280;63446;56.272;43.922;2023-09-08T05:55:21;100296.91;;;18.09;54.02
74893;BME280;63446;56.272;43.922;2023-09-08T05:57:47;100307.81;;;17.95;53.70
74893;BME280;63446;56.272;43.922;2023-09-08T06:00:14;100293.53;;;17.91;53.69
74893;BME280;63446;56.272;43.922;2023-09-08T06:02:41;100290.34;;;18.07;53.06
74893;BME280;63446;56.272;43.922;2023-09-08T06:05:11;100286.47;;;18.25;53.16
74893;BME280;63446;56.272;43.922;2023-09-08T06:07:37;100281.88;;;18.34;52.95
74893;BME280;63446;56.272;43.922;2023-09-08T06:10:05;100279.38;;;18.29;52.51
74893;BME280;63446;56.272;43.922;2023-09-08T06:12:31;100282.28;;;18.15;52.44
74893;BME280;63446;56.272;43.922;2023-09-08T06:14:57;100280.75;;;17.97;52.85
74893;BME280;63446;56.272;43.922;2023-09-08T06:17:23;100273.25;;;17.73;53.07
74893;BME280;63446;56.272;43.922;2023-09-08T06:19:49;100283.50;;;17.53;53.71
74893;BME280;63446;56.272;43.922;2023-09-08T06:22:15;100282.13;;;17.30;53.96
74893;BME280;63446;56.272;43.922;2023-09-08T06:24:42;100281.19;;;17.08;54.85
74893;BME280;63446;56.272;43.922;2023-09-08T06:27:11;100272.69;;;16.89;55.42
74893;BME280;63446;56.272;43.922;2023-09-08T06:29:39;100273.72;;;16.71;56.06
74893;BME280;63446;56.272;43.922;2023-09-08T06:32:07;100277.16;;;16.54;56.74
74893;BME280;63446;56.272;43.922;2023-09-08T06:34:34;100273.81;;;16.40;56.74
74893;BME280;63446;56.272;43.922;2023-09-08T06:37:02;100268.09;;;16.24;56.79
74893;BME280;63446;56.272;43.922;2023-09-08T06:39:29;100269.91;;;16.06;57.26
74893;BME280;63446;56.272;43.922;2023-09-08T06:41:57;100263.41;;;15.90;58.25
74893;BME280;63446;56.272;43.922;2023-09-08T06:44:23;100260.66;;;15.72;58.86
74893;BME280;63446;56.272;43.922;2023-09-08T06:46:49;100268.88;;;15.62;59.33
74893;BME280;63446;56.272;43.922;2023-09-08T06:49:15;100272.88;;;15.51;59.76
74893;BME280;63446;56.272;43.922;2023-09-08T06:51:40;100278.56;;;15.35;60.37
74893;BME280;63446;56.272;43.922;2023-09-08T06:54:06;100279.50;;;15.17;60.86
74893;BME280;63446;56.272;43.922;2023-09-08T06:56:37;100270.69;;;14.94;60.99
74893;BME280;63446;56.272;43.922;2023-09-08T06:59:04;100277.06;;;14.71;60.62
74893;BME280;63446;56.272;43.922;2023-09-08T07:01:30;100277.84;;;14.44;60.39
74893;BME280;63446;56.272;43.922;2023-09-08T07:03:56;100276.66;;;14.22;60.77
74893;BME280;63446;56.272;43.922;2023-09-08T07:06:21;100271.72;;;14.02;61.20
74893;BME280;63446;56.272;43.922;2023-09-08T07:08:49;100274.94;;;13.85;61.78
74893;BME280;63446;56.272;43.922;2023-09-08T07:11:16;100278.63;;;13.70;62.02
74893;BME280;63446;56.272;43.922;2023-09-08T07:13:43;100277.72;;;13.61;62.73
74893;BME280;63446;56.272;43.922;2023-09-08T07:16:09;100272.28;;;13.52;63.17
74893;BME280;63446;56.272;43.922;2023-09-08T07:18:36;100276.00;;;13.51;63.46
74893;BME280;63446;56.272;43.922;2023-09-08T07:21:05;100273.06;;;13.53;63.42
74893;BME280;63446;56.272;43.922;2023-09-08T07:23:32;100278.78;;;13.60;63.41
74893;BME280;63446;56.272;43.922;2023-09-08T07:25:58;100281.28;;;13.70;63.66
74893;BME280;63446;56.272;43.922;2023-09-08T07:28:29;100272.75;;;13.87;63.99
74893;BME280;63446;56.272;43.922;2023-09-08T07:31:04;100269.25;;;14.05;63.82
74893;BME280;63446;56.272;43.922;2023-09-08T07:33:32;100264.56;;;14.30;63.19
74893;BME280;63446;56.272;43.922;2023-09-08T07:36:06;100263.28;;;14.55;63.16
74893;BME280;63446;56.272;43.922;2023-09-08T07:38:33;100267.66;;;14.87;62.96
74893;BME280;63446;56.272;43.922;2023-09-08T07:41:01;100267.75;;;15.18;62.46
74893;BME280;63446;56.272;43.922;2023-09-08T07:43:28;100276.03;;;15.53;61.37
74893;BME280;63446;56.272;43.922;2023-09-08T07:45:54;100269.94;;;15.83;60.28
74893;BME280;63446;56.272;43.922;2023-09-08T07:48:21;100272.81;;;16.18;60.07
74893;BME280;63446;56.272;43.922;2023-09-08T07:50:47;100273.03;;;16.48;58.90
74893;BME280;63446;56.272;43.922;2023-09-08T07:53:13;100275.47;;;16.75;58.10
74893;BME280;63446;56.272;43.922;2023-09-08T07:55:40;100267.84;;;17.00;57.38
74893;BME280;63446;56.272;43.922;2023-09-08T07:58:08;100277.56;;;17.22;56.93
74893;BME280;63446;56.272;43.922;2023-09-08T08:00:34;100272.38;;;17.43;56.18
74893;BME280;63446;56.272;43.922;2023-09-08T08:03:00;100273.44;;;17.59;55.60
74893;BME280;63446;56.272;43.922;2023-09-08T08:05:26;100267.44;;;17.71;55.17
74893;BME280;63446;56.272;43.922;2023-09-08T08:07:52;100262.56;;;17.81;55.04
74893;BME280;63446;56.272;43.922;2023-09-08T08:10:19;100259.41;;;17.88;54.20
74893;BME280;63446;56.272;43.922;2023-09-08T08:12:45;100259.69;;;17.95;53.57
74893;BME280;63446;56.272;43.922;2023-09-08T08:15:12;100261.41;;;18.00;53.82
74893;BME280;63446;56.272;43.922;2023-09-08T08:17:39;100259.34;;;18.05;53.64
74893;BME280;63446;56.272;43.922;2023-09-08T08:20:06;100268.75;;;18.12;53.75
74893;BME280;63446;56.272;43.922;2023-09-08T08:22:34;100268.72;;;18.20;53.42
74893;BME280;63446;56.272;43.922;2023-09-08T08:25:00;100256.88;;;18.30;53.08
74893;BME280;63446;56.272;43.922;2023-09-08T08:27:31;100250.84;;;18.42;52.46
74893;BME280;63446;56.272;43.922;2023-09-08T08:29:58;100253.91;;;18.52;51.73
74893;BME280;63446;56.272;43.922;2023-09-08T08:32:27;100261.41;;;18.59;51.69
74893;BME280;63446;56.272;43.922;2023-09-08T08:34:54;100261.91;;;18.61;51.20
74893;BME280;63446;56.272;43.922;2023-09-08T08:37:20;100263.97;;;18.55;50.94
74893;BME280;63446;56.272;43.922;2023-09-08T08:39:47;100260.38;;;18.51;51.08
74893;BME280;63446;56.272;43.922;2023-09-08T08:42:13;100268.59;;;18.46;50.61
74893;BME280;63446;56.272;43.922;2023-09-08T08:44:40;100268.13;;;18.44;50.26
74893;BME280;63446;56.272;43.922;2023-09-08T08:47:07;100265.91;;;18.46;50.13
74893;BME280;63446;56.272;43.922;2023-09-08T08:49:34;100264.59;;;18.52;50.07
74893;BME280;63446;56.272;43.922;2023-09-08T08:52:00;100271.47;;;18.62;49.87
74893;BME280;63446;56.272;43.922;2023-09-08T08:54:30;100269.06;;;18.78;49.48
74893;BME280;63446;56.272;43.922;2023-09-08T08:56:56;100267.03;;;18.96;49.53
74893;BME280;63446;56.272;43.922;2023-09-08T08:59:22;100265.91;;;19.18;48.67
74893;BME280;63446;56.272;43.922;2023-09-08T09:01:49;100260.06;;;19.37;48.33
74893;BME280;63446;56.272;43.922;2023-09-08T09:04:16;100268.94;;;19.49;47.84
74893;BME280;63446;56.272;43.922;2023-09-08T09:06:42;100269.72;;;19.50;47.45
74893;BME280;63446;56.272;43.922;2023-09-08T09:09:08;100279.63;;;19.37;47.82
74893;BME280;63446;56.272;43.922;2023-09-08T09:11:36;100261.88;;;19.12;47.60
74893;BME280;63446;56.272;43.922;2023-09-08T09:14:02;100272.97;;;18.81;47.99
74893;BME280;63446;56.272;43.922;2023-09-08T09:16:29;100270.00;;;18.44;48.89
74893;BME280;63446;56.272;43.922;2023-09-08T09:18:57;100274.56;;;18.14;48.91
74893;BME280;63446;56.272;43.922;2023-09-08T09:21:24;100276.09;;;17.85;49.26
74893;BME280;63446;56.272;43.922;2023-09-08T09:23:51;100283.34;;;17.58;48.62
74893;BME280;63446;56.272;43.922;2023-09-08T09:26:25;100283.53;;;17.36;48.58
74893;BME280;63446;56.272;43.922;2023-09-08T09:28:52;100275.81;;;17.17;49.36
74893;BME280;63446;56.272;43.922;2023-09-08T09:31:23;100286.69;;;17.12;49.77
74893;BME280;63446;56.272;43.922;2023-09-08T09:34:03;100286.06;;;17.15;49.89
74893;BME280;63446;56.272;43.922;2023-09-08T09:36:33;100284.31;;;17.28;49.07
74893;BME280;63446;56.272;43.922;2023-09-08T09:39:02;100281.31;;;17.47;48.73
74893;BME280;63446;56.272;43.922;2023-09-08T09:41:29;100280.16;;;17.74;48.49
74893;BME280;63446;56.272;43.922;2023-09-08T09:43:56;100281.97;;;18.08;47.91
74893;BME280;63446;56.272;43.922;2023-09-08T09:46:22;100279.16;;;18.43;46.77
74893;BME280;63446;56.272;43.922;2023-09-08T09:48:56;100278.06;;;18.73;46.55
74893;BME280;63446;56.272;43.922;2023-09-08T09:51:22;100284.03;;;19.00;45.92
74893;BME280;63446;56.272;43.922;2023-09-08T09:53:51;100282.91;;;19.22;45.12
74893;BME280;63446;56.272;43.922;2023-09-08T09:56:18;100288.19;;;19.31;44.46
74893;BME280;63446;56.272;43.922;2023-09-08T09:58:44;100289.63;;;19.28;43.90
74893;BME280;63446;56.272;43.922;2023-09-08T10:01:11;100288.25;;;19.22;43.86
74893;BME280;63446;56.272;43.922;2023-09-08T10:03:40;100289.56;;;19.16;43.65
74893;BME280;63446;56.272;43.922;2023-09-08T10:06:06;100290.22;;;19.13;43.46
74893;BME280;63446;56.272;43.922;2023-09-08T10:08:34;100290.41;;;19.08;43.28
74893;BME280;63446;56.272;43.922;2023-09-08T10:11:07;100290.50;;;18.99;43.03
74893;BME280;63446;56.272;43.922;2023-09-08T10:13:39;100295.59;;;18.92;42.62
74893;BME280;63446;56.272;43.922;2023-09-08T10:16:08;100292.94;;;18.83;42.42
74893;BME280;63446;56.272;43.922;2023-09-08T10:18:35;100295.69;;;18.74;42.44
74893;BME280;63446;56.272;43.922;2023-09-08T10:21:03;100292.56;;;18.64;42.84
74893;BME280;63446;56.272;43.922;2023-09-08T10:23:37;100303.19;;;18.51;42.75
74893;BME280;63446;56.272;43.922;2023-09-08T10:26:08;100297.88;;;18.43;43.34
74893;BME280;63446;56.272;43.922;2023-09-08T10:28:36;100294.44;;;18.42;43.37
74893;BME280;63446;56.272;43.922;2023-09-08T10:31:02;100298.22;;;18.41;43.15
74893;BME280;63446;56.272;43.922;2023-09-08T10:33:30;100306.69;;;18.43;43.68
74893;BME280;63446;56.272;43.922;2023-09-08T10:35:57;100301.47;;;18.47;43.35
74893;BME280;63446;56.272;43.922;2023-09-08T10:38:30;100297.59;;;18.36;42.91
74893;BME280;63446;56.272;43.922;2023-09-08T10:43:46;100298.34;;;18.07;42.73
74893;BME280;63446;56.272;43.922;2023-09-08T10:46:28;100302.63;;;17.90;43.21
74893;BME280;63446;56.272;43.922;2023-09-08T10:49:01;100310.84;;;17.76;43.84
74893;BME280;63446;56.272;43.922;2023-09-08T10:51:29;100308.03;;;17.64;44.34
74893;BME280;63446;56.272;43.922;2023-09-08T10:53:56;100312.91;;;17.53;45.29
74893;BME280;63446;56.272;43.922;2023-09-08T10:56:27;100311.03;;;17.45;45.46
74893;BME280;63446;56.272;43.922;2023-09-08T10:58:54;100311.66;;;17.42;46.10
74893;BME280;63446;56.272;43.922;2023-09-08T11:01:20;100305.97;;;17.44;46.16
74893;BME280;63446;56.272;43.922;2023-09-08T11:03:54;100308.03;;;17.47;46.58
74893;BME280;63446;56.272;43.922;2023-09-08T11:06:21;100311.19;;;17.49;46.32
74893;BME280;63446;56.272;43.922;2023-09-08T11:08:48;100309.75;;;17.51;46.14
74893;BME280;63446;56.272;43.922;2023-09-08T11:11:16;100313.53;;;17.50;46.51
74893;BME280;63446;56.272;43.922;2023-09-08T11:13:43;100317.59;;;17.48;46.50
74893;BME280;63446;56.272;43.922;2023-09-08T11:16:13;100321.88;;;17.49;46.44
74893;BME280;63446;56.272;43.922;2023-09-08T11:18:40;100326.72;;;17.55;46.32
74893;BME280;63446;56.272;43.922;2023-09-08T11:21:10;100328.59;;;17.64;46.03
74893;BME280;63446;56.272;43.922;2023-09-08T11:23:37;100323.91;;;17.78;45.65
74893;BME280;63446;56.272;43.922;2023-09-08T11:26:04;100321.19;;;17.95;45.44
74893;BME280;63446;56.272;43.922;2023-09-08T11:28:30;100322.38;;;18.15;44.67
74893;BME280;63446;56.272;43.922;2023-09-08T11:30:56;100315.41;;;18.32;44.61
74893;BME280;63446;56.272;43.922;2023-09-08T11:33:24;100322.69;;;18.52;44.87
74893;BME280;63446;56.272;43.922;2023-09-08T11:35:51;100316.66;;;18.72;43.78
74893;BME280;63446;56.272;43.922;2023-09-08T11:38:27;100325.41;;;18.82;43.05
74893;BME280;63446;56.272;43.922;2023-09-08T11:40:55;100325.88;;;18.84;42.67
74893;BME280;63446;56.272;43.922;2023-09-08T11:43:23;100322.59;;;18.78;42.45
74893;BME280;63446;56.272;43.922;2023-09-08T11:45:50;100327.34;;;18.64;42.56
74893;BME280;63446;56.272;43.922;2023-09-08T11:48:16;100333.44;;;18.43;43.12
74893;BME280;63446;56.272;43.922;2023-09-08T11:50:43;100334.81;;;18.20;43.68
74893;BME280;63446;56.272;43.922;2023-09-08T11:53:09;100339.25;;;17.98;44.90
74893;BME280;63446;56.272;43.922;2023-09-08T11:55:36;100337.25;;;17.78;45.02
74893;BME280;63446;56.272;43.922;2023-09-08T11:58:02;100335.84;;;17.54;45.20
74893;BME280;63446;56.272;43.922;2023-09-08T12:00:30;100339.44;;;17.32;45.71
74893;BME280;63446;56.272;43.922;2023-09-08T12:03:12;100347.13;;;17.08;46.17
74893;BME280;63446;56.272;43.922;2023-09-08T12:05:38;100351.81;;;16.85;46.92
74893;BME280;63446;56.272;43.922;2023-09-08T12:08:05;100359.72;;;16.68;47.38
74893;BME280;63446;56.272;43.922;2023-09-08T12:10:38;100359.53;;;16.55;48.07
74893;BME280;63446;56.272;43.922;2023-09-08T12:13:05;100362.47;;;16.45;48.29
74893;BME280;63446;56.272;43.922;2023-09-08T12:15:37;100356.13;;;16.32;48.47
74893;BME280;63446;56.272;43.922;2023-09-08T12:18:06;100366.44;;;16.25;48.78
74893;BME280;63446;56.272;43.922;2023-09-08T12:20:37;100365.50;;;16.21;49.14
74893;BME280;63446;56.272;43.922;2023-09-08T12:23:06;100360.78;;;16.18;49.25
74893;BME280;63446;56.272;43.922;2023-09-08T12:25:44;100366.91;;;16.19;49.27
74893;BME280;63446;56.272;43.922;2023-09-08T12:28:11;100367.97;;;16.18;48.89
74893;BME280;63446;56.272;43.922;2023-09-08T12:30:37;100365.94;;;16.15;48.72
74893;BME280;63446;56.272;43.922;2023-09-08T12:33:04;100365.44;;;16.13;48.53
74893;BME280;63446;56.272;43.922;2023-09-08T12:35:31;100362.91;;;16.07;48.53
74893;BME280;63446;56.272;43.922;2023-09-08T12:38:04;100363.22;;;16.06;48.60
74893;BME280;63446;56.272;43.922;2023-09-08T12:40:36;100361.03;;;16.08;48.95
74893;BME280;63446;56.272;43.922;2023-09-08T12:43:03;100366.53;;;16.11;48.70
74893;BME280;63446;56.272;43.922;2023-09-08T12:45:30;100363.56;;;16.13;48.38
74893;BME280;63446;56.272;43.922;2023-09-08T12:47:59;100382.91;;;16.19;48.43